createdAt,value
2018-12-31T00:03:35.563Z,6.90
2018-12-31T00:08:58.573Z,6.90
2018-12-31T00:11:39.489Z,6.90
2018-12-31T00:14:20.537Z,6.90
2018-12-31T00:17:01.426Z,6.90
2018-12-31T00:19:41.878Z,6.90
2018-12-31T00:22:22.222Z,6.90
2018-12-31T00:25:02.545Z,6.80
2018-12-31T00:27:42.929Z,6.80
2018-12-31T00:30:24.061Z,6.80
2018-12-31T00:33:05.494Z,6.80
2018-12-31T00:35:44.429Z,6.80
2018-12-31T00:38:32.534Z,6.80
2018-12-31T00:41:21.149Z,6.80
2018-12-31T00:44:09.362Z,6.80
2018-12-31T00:46:50.557Z,6.80
2018-12-31T00:49:30.891Z,6.80
2018-12-31T00:52:11.601Z,6.80
2018-12-31T00:54:52.389Z,6.90
2018-12-31T00:57:33.269Z,6.90
2018-12-31T01:00:13.960Z,6.90
2018-12-31T01:02:54.937Z,6.90
2018-12-31T01:05:36.286Z,6.90
2018-12-31T01:08:17.504Z,6.80
2018-12-31T01:10:57.965Z,6.80
2018-12-31T01:13:39.029Z,6.80
2018-12-31T01:24:59.906Z,6.80
2018-12-31T01:30:26.169Z,6.80
2018-12-31T01:35:56.384Z,6.80
2018-12-31T01:47:05.633Z,6.80
2018-12-31T01:52:34.114Z,6.80
2018-12-31T01:58:11.177Z,6.90
2018-12-31T02:03:48.994Z,6.90
2018-12-31T02:06:30.350Z,6.90
2018-12-31T02:11:57.689Z,6.90
2018-12-31T02:14:45.585Z,6.80
2018-12-31T02:17:33.693Z,6.80
2018-12-31T02:20:21.594Z,6.80
2018-12-31T02:23:09.473Z,6.90
2018-12-31T02:25:58.101Z,6.90
2018-12-31T02:28:46.261Z,6.90
2018-12-31T02:31:34.154Z,6.90
2018-12-31T02:34:22.371Z,6.90
2018-12-31T02:37:10.270Z,6.90
2018-12-31T02:39:58.150Z,6.90
2018-12-31T02:42:46.269Z,6.90
2018-12-31T02:45:34.490Z,6.90
2018-12-31T02:48:15.121Z,6.90
2018-12-31T02:50:55.797Z,6.80
2018-12-31T02:53:36.821Z,6.80
2018-12-31T02:56:15.880Z,6.90
2018-12-31T02:59:04.147Z,6.90
2018-12-31T03:01:52.297Z,6.90
2018-12-31T03:04:40.446Z,6.90
2018-12-31T03:07:28.403Z,6.90
2018-12-31T03:10:16.277Z,6.90
2018-12-31T03:13:04.408Z,6.90
2018-12-31T03:15:52.304Z,6.90
2018-12-31T03:21:47.297Z,6.90
2018-12-31T03:24:35.183Z,6.90
2018-12-31T03:27:23.321Z,6.90
2018-12-31T03:30:11.220Z,6.90
2018-12-31T03:32:59.224Z,7.00
2018-12-31T03:35:47.488Z,6.90
2018-12-31T03:38:35.358Z,7.00
2018-12-31T03:41:23.253Z,7.00
2018-12-31T03:44:11.132Z,6.90
2018-12-31T03:46:59.042Z,7.00
2018-12-31T03:49:46.926Z,6.90
2018-12-31T03:52:34.817Z,6.90
2018-12-31T03:55:22.701Z,6.90
2018-12-31T03:58:10.584Z,6.90
2018-12-31T04:00:58.477Z,6.90
2018-12-31T04:03:46.372Z,6.90
2018-12-31T04:06:34.512Z,6.90
2018-12-31T04:09:22.397Z,6.90
2018-12-31T04:12:10.553Z,6.90
2018-12-31T04:14:58.683Z,6.90
2018-12-31T04:17:46.577Z,6.90
2018-12-31T04:20:34.458Z,6.90
2018-12-31T04:23:22.352Z,6.90
2018-12-31T04:26:10.529Z,6.80
2018-12-31T04:28:58.421Z,6.90
2018-12-31T04:31:46.317Z,6.90
2018-12-31T04:34:34.477Z,6.90
2018-12-31T04:37:22.637Z,6.90
2018-12-31T04:40:10.519Z,6.80
2018-12-31T04:42:58.745Z,6.80
2018-12-31T04:45:46.625Z,6.80
2018-12-31T04:48:27.299Z,6.80
2018-12-31T04:51:07.874Z,6.80
2018-12-31T04:53:48.446Z,6.80
2018-12-31T04:56:28.786Z,6.80
2018-12-31T04:59:09.270Z,6.80
2018-12-31T05:01:49.722Z,6.80
2018-12-31T05:04:30.346Z,6.80
2018-12-31T05:07:10.702Z,6.80
2018-12-31T05:09:51.356Z,6.80
2018-12-31T05:12:32.158Z,6.80
2018-12-31T05:15:12.709Z,6.80
2018-12-31T05:17:52.986Z,6.80
2018-12-31T05:20:33.598Z,6.70
2018-12-31T05:23:14.905Z,6.70
2018-12-31T05:25:56.030Z,6.70
2018-12-31T05:28:37.779Z,6.70
2018-12-31T05:31:18.589Z,6.70
2018-12-31T05:33:59.363Z,6.70
2018-12-31T05:39:24.292Z,6.70
2018-12-31T05:42:05.104Z,6.70
2018-12-31T05:44:48.748Z,6.70
2018-12-31T05:50:18.433Z,6.80
2018-12-31T05:52:59.277Z,6.80
2018-12-31T05:58:24.970Z,6.80
2018-12-31T06:03:55.866Z,6.80
2018-12-31T06:09:25.877Z,6.80
2018-12-31T06:14:55.866Z,6.80
2018-12-31T06:20:25.452Z,6.80
2018-12-31T06:25:56.687Z,6.80
2018-12-31T06:28:38.766Z,6.90
2018-12-31T06:34:06.930Z,6.90
2018-12-31T06:39:38.209Z,6.90
2018-12-31T06:45:07.745Z,6.90
2018-12-31T06:50:38.737Z,6.90
2018-12-31T06:56:08.838Z,6.90
2018-12-31T06:58:50.890Z,6.90
2018-12-31T07:04:21.117Z,6.90
2018-12-31T07:09:52.400Z,7.00
2018-12-31T07:15:19.190Z,7.00
2018-12-31T07:20:44.766Z,7.00
2018-12-31T07:26:14.330Z,7.00
2018-12-31T07:31:40.398Z,7.00
2018-12-31T07:34:21.265Z,7.00
2018-12-31T07:39:51.525Z,7.00
2018-12-31T07:45:21.557Z,7.00
2018-12-31T07:50:51.942Z,7.00
2018-12-31T07:56:17.025Z,7.00
2018-12-31T08:01:48.486Z,7.00
2018-12-31T08:07:18.686Z,7.00
2018-12-31T08:10:00.941Z,7.00
2018-12-31T08:15:27.337Z,7.00
2018-12-31T08:20:58.838Z,7.10
2018-12-31T08:26:23.730Z,7.10
2018-12-31T08:29:04.561Z,7.10
2018-12-31T08:31:45.882Z,7.10
2018-12-31T08:37:15.953Z,7.10
2018-12-31T08:39:57.969Z,7.10
2018-12-31T08:42:41.945Z,7.20
2018-12-31T08:45:23.855Z,7.20
2018-12-31T08:50:55.230Z,7.20
2018-12-31T08:56:27.522Z,7.20
2018-12-31T09:01:52.182Z,7.20
2018-12-31T09:07:16.554Z,7.30
2018-12-31T09:12:43.843Z,7.30
2018-12-31T09:15:25.070Z,7.30
2018-12-31T09:18:05.726Z,7.30
2018-12-31T09:23:32.160Z,7.40
2018-12-31T09:26:12.833Z,7.40
2018-12-31T09:31:35.621Z,7.40
2018-12-31T09:34:16.649Z,7.40
2018-12-31T09:36:57.338Z,7.50
2018-12-31T09:39:38.785Z,7.50
2018-12-31T09:42:19.956Z,7.50
2018-12-31T09:45:01.038Z,7.50
2018-12-31T09:47:41.925Z,7.50
2018-12-31T09:50:20.938Z,7.60
2018-12-31T09:53:08.829Z,7.70
2018-12-31T09:55:56.949Z,7.70
2018-12-31T09:58:44.845Z,7.70
2018-12-31T10:01:32.728Z,7.70
2018-12-31T10:04:21.578Z,7.70
2018-12-31T10:07:10.493Z,7.80
2018-12-31T10:09:58.377Z,7.80
2018-12-31T10:12:46.565Z,7.80
2018-12-31T10:15:34.445Z,7.80
2018-12-31T10:18:22.665Z,7.80
2018-12-31T10:21:10.549Z,7.80
2018-12-31T10:23:58.949Z,7.80
2018-12-31T10:29:42.622Z,7.80
2018-12-31T10:32:30.618Z,7.80
2018-12-31T10:38:14.530Z,7.70
2018-12-31T10:41:02.647Z,7.70
2018-12-31T10:43:49.917Z,7.70
2018-12-31T10:46:38.080Z,7.70
2018-12-31T10:49:22.282Z,7.70
2018-12-31T10:54:51.589Z,7.80
2018-12-31T11:00:25.426Z,7.90
2018-12-31T11:05:59.046Z,8.00
2018-12-31T11:11:37.735Z,8.00
2018-12-31T11:14:18.303Z,8.10
2018-12-31T11:16:59.018Z,8.10
2018-12-31T11:22:26.041Z,8.10
2018-12-31T11:25:06.501Z,8.20
2018-12-31T11:30:35.535Z,8.40
2018-12-31T11:33:16.977Z,8.40
2018-12-31T11:35:58.077Z,8.50
2018-12-31T11:38:38.849Z,8.50
2018-12-31T11:41:19.749Z,8.60
2018-12-31T11:44:01.042Z,8.70
2018-12-31T11:46:42.286Z,8.70
2018-12-31T11:49:23.040Z,8.70
2018-12-31T11:52:03.607Z,8.80
2018-12-31T11:54:44.625Z,8.90
2018-12-31T11:57:25.442Z,8.90
2018-12-31T12:00:07.678Z,8.90
2018-12-31T12:02:48.858Z,9.00
2018-12-31T12:05:30.152Z,9.10
2018-12-31T12:08:10.646Z,9.20
2018-12-31T12:10:52.621Z,9.40
2018-12-31T12:13:33.309Z,9.40
2018-12-31T12:16:14.015Z,9.50
2018-12-31T12:18:55.054Z,9.50
2018-12-31T12:21:36.405Z,9.50
2018-12-31T12:24:17.208Z,9.60
2018-12-31T12:26:58.070Z,9.60
2018-12-31T12:29:38.856Z,9.70
2018-12-31T12:32:19.439Z,9.70
2018-12-31T12:35:00.521Z,9.70
2018-12-31T12:37:48.258Z,9.80
2018-12-31T12:40:23.655Z,9.80
2018-12-31T12:43:04.586Z,9.80
2018-12-31T12:45:45.810Z,9.80
2018-12-31T12:48:26.405Z,9.70
2018-12-31T12:51:07.322Z,9.70
2018-12-31T12:53:48.217Z,9.70
2018-12-31T12:56:28.698Z,9.60
2018-12-31T12:59:09.117Z,9.60
2018-12-31T13:01:50.125Z,9.60
2018-12-31T13:04:30.722Z,9.70
2018-12-31T13:07:11.494Z,9.70
2018-12-31T13:09:51.957Z,9.70
2018-12-31T13:12:32.363Z,9.60
2018-12-31T13:15:13.302Z,9.60
2018-12-31T13:17:54.047Z,9.50
2018-12-31T13:20:34.526Z,9.50
2018-12-31T13:23:15.156Z,9.50
2018-12-31T13:25:55.498Z,9.70
2018-12-31T13:28:36.410Z,10.10
2018-12-31T13:31:17.641Z,10.20
2018-12-31T13:33:58.369Z,10.20
2018-12-31T13:36:38.730Z,10.10
2018-12-31T13:39:19.373Z,9.90
2018-12-31T13:42:00.446Z,9.90
2018-12-31T13:44:42.877Z,9.80
2018-12-31T13:47:23.403Z,9.70
2018-12-31T13:50:04.466Z,9.60
2018-12-31T13:52:45.750Z,9.60
2018-12-31T13:55:26.766Z,9.50
2018-12-31T13:58:07.193Z,9.50
2018-12-31T14:00:48.050Z,9.40
2018-12-31T14:03:28.950Z,9.40
2018-12-31T14:06:09.717Z,9.30
2018-12-31T14:08:50.322Z,9.30
2018-12-31T14:11:31.580Z,9.30
2018-12-31T14:14:12.495Z,9.30
2018-12-31T14:16:53.445Z,9.20
2018-12-31T14:22:22.278Z,9.20
2018-12-31T14:27:50.850Z,9.20
2018-12-31T14:33:16.588Z,9.20
2018-12-31T14:35:58.906Z,9.20
2018-12-31T14:41:27.293Z,9.20
2018-12-31T14:46:54.815Z,9.20
2018-12-31T14:52:19.963Z,9.10
2018-12-31T14:55:01.134Z,9.10
2018-12-31T14:57:42.458Z,9.10
2018-12-31T15:02:59.225Z,9.00
2018-12-31T15:05:47.110Z,9.00
2018-12-31T15:08:35.226Z,8.90
2018-12-31T15:11:23.117Z,8.90
2018-12-31T15:14:11.226Z,8.90
2018-12-31T15:16:59.351Z,8.90
2018-12-31T15:19:47.463Z,8.90
2018-12-31T15:22:35.357Z,8.90
2018-12-31T15:25:23.244Z,8.90
2018-12-31T15:28:11.367Z,8.90
2018-12-31T15:30:59.535Z,8.90
2018-12-31T15:33:47.424Z,8.80
2018-12-31T15:36:35.716Z,8.80
2018-12-31T15:39:23.593Z,8.80
2018-12-31T15:42:11.484Z,8.80
2018-12-31T15:44:59.369Z,8.80
2018-12-31T15:47:47.257Z,8.80
2018-12-31T15:53:17.997Z,8.80
2018-12-31T15:55:59.165Z,8.80
2018-12-31T15:58:39.602Z,8.80
2018-12-31T16:04:05.593Z,8.80
2018-12-31T16:09:33.531Z,8.70
2018-12-31T16:12:14.951Z,8.70
2018-12-31T16:17:45.870Z,8.70
2018-12-31T16:23:17.427Z,8.70
2018-12-31T16:28:48.733Z,8.70
2018-12-31T16:34:19.202Z,8.60
2018-12-31T16:39:49.242Z,8.60
2018-12-31T16:42:30.421Z,8.60
2018-12-31T16:45:11.590Z,8.50
2018-12-31T16:47:53.301Z,8.50
2018-12-31T16:53:24.423Z,8.50
2018-12-31T16:58:54.546Z,8.40
2018-12-31T17:01:35.442Z,8.40
2018-12-31T17:04:15.837Z,8.40
2018-12-31T17:09:42.423Z,8.30
2018-12-31T17:15:13.909Z,8.30
2018-12-31T17:20:38.686Z,8.30
2018-12-31T17:23:19.375Z,8.30
2018-12-31T17:25:59.959Z,8.20
2018-12-31T17:28:41.609Z,8.20
2018-12-31T17:31:22.217Z,8.20
2018-12-31T17:34:03.915Z,8.20
2018-12-31T17:39:34.838Z,8.20
2018-12-31T17:42:15.869Z,8.20
2018-12-31T17:44:56.858Z,8.20
2018-12-31T17:50:26.882Z,8.10
2018-12-31T17:55:56.353Z,8.10
2018-12-31T17:58:37.467Z,8.10
2018-12-31T18:01:19.361Z,8.10
2018-12-31T18:04:00.317Z,8.10
2018-12-31T18:06:41.525Z,8.10
2018-12-31T18:09:22.294Z,8.10
2018-12-31T18:12:03.441Z,8.10
2018-12-31T18:14:43.950Z,8.10
2018-12-31T18:17:24.525Z,8.10
2018-12-31T18:20:05.218Z,8.10
2018-12-31T18:22:46.145Z,8.10
2018-12-31T18:25:26.865Z,8.00
2018-12-31T18:28:07.226Z,8.10
2018-12-31T18:30:48.244Z,8.00
2018-12-31T18:33:29.103Z,8.00
2018-12-31T18:36:10.005Z,8.00
2018-12-31T18:41:33.226Z,8.00
2018-12-31T18:44:14.706Z,8.00
2018-12-31T18:46:56.057Z,8.00
2018-12-31T18:49:37.145Z,8.00
2018-12-31T18:52:17.769Z,8.00
2018-12-31T18:54:58.254Z,8.00
2018-12-31T18:57:39.268Z,8.00
2018-12-31T19:00:20.509Z,8.00
2018-12-31T19:03:01.192Z,8.00
2018-12-31T19:05:41.962Z,8.10
2018-12-31T19:08:22.330Z,8.10
2018-12-31T19:11:03.046Z,8.10
2018-12-31T19:13:43.466Z,8.00
2018-12-31T19:16:24.281Z,8.00
2018-12-31T19:19:05.221Z,8.00
2018-12-31T19:27:38.319Z,8.00
2018-12-31T19:33:07.521Z,8.00
2018-12-31T19:44:30.583Z,7.90
2018-12-31T19:47:11.649Z,7.90
2018-12-31T19:55:35.134Z,7.90
2018-12-31T19:58:15.817Z,7.90
2018-12-31T20:03:45.025Z,7.90
2018-12-31T20:09:08.351Z,8.00
2018-12-31T20:11:49.553Z,8.00
2018-12-31T20:14:29.933Z,8.00
2018-12-31T20:17:10.755Z,8.00
2018-12-31T20:22:43.438Z,8.00
2018-12-31T20:25:23.897Z,8.00
2018-12-31T20:28:06.115Z,8.00
2018-12-31T20:30:47.409Z,7.90
2018-12-31T20:33:28.234Z,7.90
2018-12-31T20:36:08.797Z,7.90
2018-12-31T20:38:49.660Z,7.90
2018-12-31T20:41:29.973Z,7.90
2018-12-31T20:44:10.478Z,7.90
2018-12-31T20:46:51.833Z,7.90
2018-12-31T20:49:32.555Z,7.90
2018-12-31T20:52:13.421Z,7.90
2018-12-31T20:54:53.982Z,7.90
2018-12-31T20:57:34.693Z,7.90
2018-12-31T21:00:15.301Z,7.90
2018-12-31T21:02:55.877Z,7.80
2018-12-31T21:05:36.809Z,7.80
2018-12-31T21:08:17.489Z,7.80
2018-12-31T21:10:57.975Z,7.80
2018-12-31T21:13:38.422Z,7.80
2018-12-31T21:16:19.411Z,7.80
2018-12-31T21:19:00.706Z,7.80
2018-12-31T21:21:41.276Z,7.80
2018-12-31T21:24:22.193Z,7.80
2018-12-31T21:27:03.340Z,7.80
2018-12-31T21:29:43.948Z,7.80
2018-12-31T21:32:24.557Z,7.80
2018-12-31T21:35:04.192Z,7.80
2018-12-31T21:37:52.073Z,7.70
2018-12-31T21:40:39.970Z,7.70
2018-12-31T21:43:27.850Z,7.70
2018-12-31T21:46:15.753Z,7.70
2018-12-31T21:49:03.909Z,7.70
2018-12-31T21:51:44.699Z,7.70
2018-12-31T21:54:25.657Z,7.70
2018-12-31T21:57:07.193Z,7.70
2018-12-31T21:59:48.409Z,7.70
2018-12-31T22:02:29.113Z,7.70
2018-12-31T22:05:10.718Z,7.70
2018-12-31T22:07:51.537Z,7.70
2018-12-31T22:10:31.981Z,7.70
2018-12-31T22:13:12.765Z,7.70
2018-12-31T22:15:53.370Z,7.70
2018-12-31T22:18:33.986Z,7.70
2018-12-31T22:21:14.458Z,7.70
2018-12-31T22:23:54.948Z,7.70
2018-12-31T22:26:35.757Z,7.70
2018-12-31T22:29:17.094Z,7.70
2018-12-31T22:31:58.010Z,7.70
2018-12-31T22:34:38.633Z,7.70
2018-12-31T22:37:19.303Z,7.70
2018-12-31T22:40:00.248Z,7.70
2018-12-31T22:42:41.169Z,7.70
2018-12-31T22:45:21.942Z,7.70
2018-12-31T22:48:02.487Z,7.70
2018-12-31T22:50:42.789Z,7.70
2018-12-31T22:53:23.791Z,7.60
2018-12-31T22:56:04.382Z,7.60
2018-12-31T22:58:45.593Z,7.70
2018-12-31T23:01:26.241Z,7.60
2018-12-31T23:04:06.797Z,7.70
2018-12-31T23:06:47.689Z,7.60
2018-12-31T23:09:28.185Z,7.60
2018-12-31T23:12:08.766Z,7.60
2018-12-31T23:14:49.932Z,7.50
2018-12-31T23:17:30.567Z,7.50
2018-12-31T23:20:11.342Z,7.50
2018-12-31T23:22:52.274Z,7.60
2018-12-31T23:28:17.060Z,7.50
2018-12-31T23:33:41.897Z,7.50
2018-12-31T23:41:53.584Z,7.50
2018-12-31T23:44:34.842Z,7.50
2018-12-31T23:47:19.154Z,7.40
2018-12-31T23:52:45.406Z,7.40
2018-12-31T23:58:15.234Z,7.50
